Tuesday, October 16, 2018, 6:47 AM EDT
Back to Local

KGTB, Fort Drum / Wheeler-sack U. S. Army Airfield

Location: Fort Drum, NY, United States Lat: 44.05
Local Time: 6:47 AM EDT (10:47 GMT) Lon: -75.733
Time Zone: US/Eastern Elev: 679 ft

Show me the last for .
Show Decoded

2018-10-16 05:56 METAR KGTB 160956Z AUTO 28007KT 10SM CLR 04/02 A3004 RMK AO2 SLP177 T00370017
                 TSNO $ =
2018-10-16 04:56 METAR KGTB 160856Z AUTO 29009G15KT 10SM CLR 04/01 A3003 RMK AO2 SLP173 T00430012
                 53013 TSNO $ =
2018-10-16 03:56 METAR KGTB 160756Z AUTO 28009G20KT 10SM FEW029 04/00 A3001 RMK AO2 SLP165
                 T00430004 TSNO $ =
2018-10-16 02:56 METAR KGTB 160656Z AUTO 28009G17KT 10SM BKN030 BKN035 05/01 A3000 RMK AO2 SLP162
                 T00470005 TSNO $ =
2018-10-16 01:56 METAR KGTB 160556Z AUTO 26008G17KT 10SM FEW037 05/00 A3000 RMK AO2 PK WND
                 27028/0459 SLP162 60001 T00450001 10109 20043 52025 TSNO $ =
2018-10-16 00:56 METAR KGTB 160456Z AUTO 28011G22KT 10SM CLR 05/M01 A2998 RMK AO2 PK WND 27032/16
                 SLP156 T00451007 401550045 TSNO $ =
2018-10-15 23:56 METAR KGTB 160356Z AUTO 28014G26KT 10SM FEW029 SCT036 SCT070 05/01 A2996 RMK AO2
                 PK WND 29034/22 SLP150 T00520006 TSNO $ =
2018-10-15 23:46 METAR KGTB 160346Z AUTO 28012G23KT 10SM SCT029 BKN036 BKN065 05/01 A2996 RMK AO2
                 SLP150 TSNO $ =
2018-10-15 23:26 METAR KGTB 160326Z AUTO 30016G26KT 10SM BKN029 OVC060 06/01 A2995 RMK AO2 CIG
                 029V060 BKN V SCT SLP147 TSNO $ =
2018-10-15 22:56 METAR KGTB 160256Z AUTO 28014G21KT 10SM FEW029 SCT036 BKN048 OVC060 07/02 A2992
                 RMK AO2 PK WND 27035/18 RAB11E22 SLP136 P0001 60001 T00660023 52048 TSNO $ =
2018-10-15 22:22 METAR KGTB 160222Z AUTO 29012G24KT 10SM SCT030 BKN036 BKN045 BKN065 07/04 A2990
                 RMK AO2 RAB11E22 SLP130 TSNO $ =
2018-10-15 22:11 METAR KGTB 160211Z AUTO 28014G26KT 10SM -RA SCT034 BKN045 BKN060 08/02 A2989 RMK
                 AO2 RAB11 PRESRR SLP126 TSNO $ =
2018-10-15 21:56 METAR KGTB 160156Z AUTO 27010G22KT 10SM BKN039 BKN049 BKN060 09/03 A2987 RMK AO2
                 PK WND 26031/0057 SLP118 T00860026 TSNO $ =
2018-10-15 21:06 METAR KGTB 160106Z AUTO 27015G30KT 10SM FEW020 SCT026 OVC036 10/06 A2983 RMK AO2
                 SLP105 TSNO $ =
2018-10-15 20:56 METAR KGTB 160056Z AUTO 28017G27KT 10SM BKN019 BKN028 OVC034 10/08 A2982 RMK AO2
                 PK WND 28029/55 DZE02RAB21E31 SLP101 P0000 T00970083 TSNO $ =
2018-10-15 20:42 METAR KGTB 160042Z AUTO 29011G18KT 10SM OVC019 10/09 A2981 RMK AO2 DZE02RAB21E31
                 SLP098 TSNO $ =
2018-10-15 20:32 METAR KGTB 160032Z AUTO 28014G21KT 10SM OVC020 10/10 A2980 RMK AO2 DZE02RAB21E31
                 SLP094 TSNO $ =
2018-10-15 20:31 METAR KGTB 160031Z AUTO 28014G21KT 10SM -RA OVC020 10/10 A2980 RMK AO2
                 DZE02RAB21E31 SLP094 TSNO $ =
2018-10-15 20:21 METAR KGTB 160021Z AUTO 29010G20KT 10SM -RA OVC019 10/10 A2979 RMK AO2
                 DZE02RAB21 CIG 018V030 OVC V SCT SLP091 TSNO $ =
2018-10-15 20:12 METAR KGTB 160012Z AUTO 28007G20KT 10SM SCT023 BKN030 BKN043 11/11 A2979 RMK AO2
                 DZE02 SLP091 TSNO $ =
2018-10-15 20:02 METAR KGTB 160002Z AUTO 28009G21KT 10SM BKN023 BKN031 11/11 A2978 RMK AO2 DZE02
                 CIG 019 RWY03 SLP088 TSNO $ =
2018-10-15 19:56 METAR KGTB 152356Z AUTO 28013G21KT 10SM -DZ BKN023 BKN036 11/11 A2978 RMK AO2 PK
                 WND 27032/28 DZB02E03RAB03E14DZB14E15DZB36 CIG 021 RWY03 SLP088 P0000 60007
                 T01100110 10155 20110 53018 TSNO $ =
2018-10-15 19:36 METAR KGTB 152336Z AUTO 26014G21KT 10SM -DZ OVC022 12/12 A2976 RMK AO2
                 DZB02E03RAB03E14DZB14E15DZB36 SLP081 TSNO $ =
2018-10-15 19:35 METAR KGTB 152335Z AUTO 26015G24KT 10SM OVC022 12/12 A2976 RMK AO2
                 DZB02E03RAB03E14DZB14E15 SLP081 TSNO $ =
2018-10-15 19:25 METAR KGTB 152325Z AUTO 26015G24KT 10SM BKN019 OVC027 12/12 A2975 RMK AO2
                 DZB02E03RAB03E14DZB14E15 CIG 019V025 BKN V SCT SLP077 TSNO $ =
2018-10-15 19:15 METAR KGTB 152315Z AUTO 26013G21KT 10SM SCT019 BKN025 BKN031 OVC048 12/12 A2975
                 RMK AO2 DZB02E03RAB03E14DZB14E15 CIG 019V025 SLP077 TSNO $ =
2018-10-15 19:12 METAR KGTB 152312Z AUTO 26011G21KT 10SM -RA SCT019 BKN025 BKN031 OVC048 12/12
                 A2975 RMK AO2 DZB02E03RAB03 CIG 019V025 CIG 020 RWY03 SLP077 TSNO $ =
2018-10-15 19:02 METAR KGTB 152302Z AUTO 25011G21KT 10SM -DZ SCT019 BKN024 BKN031 OVC047 12/12
                 A2974 RMK AO2 DZB02 CIG 024V047 BKN024 V SCT CIG 020 RWY03 SLP074 TSNO $ =
2018-10-15 18:56 METAR KGTB 152256Z AUTO 25013G21KT 10SM FEW019 SCT024 SCT030 OVC047 12/12 A2974
                 RMK AO2 SLP074 T01220122 TSNO $ =
2018-10-15 18:46 METAR KGTB 152246Z AUTO 26011G20KT 10SM SCT021 BKN030 OVC047 12/12 A2974 RMK AO2
                 SLP074 TSNO $ =
2018-10-15 18:36 METAR KGTB 152236Z AUTO 25013G23KT 10SM SCT018 BKN024 BKN030 OVC047 12/12 A2974
                 RMK AO2 CIG 017V024 CIG 017 RWY03 SLP074 TSNO $ =
2018-10-15 18:06 METAR KGTB 152206Z AUTO 25011G21KT 10SM BKN015 BKN022 OVC043 12/12 A2973 RMK AO2
                 BKN015 V OVC CIG 011 RWY03 SLP071 TSNO $ =
2018-10-15 17:56 METAR KGTB 152156Z AUTO 25014G21KT 10SM BKN013 OVC018 12/12 A2973 RMK AO2 PK WND
                 25026/00 RAE2057DZB2057E24 CIG 011 RWY03 SLP071 P0000 T01210121 TSNO $ =
2018-10-15 17:24 METAR KGTB 152124Z AUTO 24012G20KT 10SM BKN012 12/12 A2972 RMK AO2
                 RAE2057DZB2057E24 CIG 009V015 CIG 008 RWY03 SLP067 TSNO $ =
2018-10-15 17:06 METAR KGTB 152106Z AUTO 24015G26KT 8SM -DZ BKN009 OVC025 12/12 A2972 RMK AO2
                 RAE2057DZB2057 CIG 007V009 CIG 005 RWY03 SLP067 TSNO $ =
2018-10-15 16:56 METAR KGTB 152056Z AUTO 24015G24KT 6SM -RA BKN007 BKN011 OVC025 12/12 A2972 RMK
                 AO2 PK WND 22037/16 DZB02E09RAB09E30DZB30E34RAB39 CIG 007V022 BKN007 V SCT CIG
                 005 RWY03 SLP067 P0007 60007 T01220122 55005 TSNO $ =
2018-10-15 16:49 METAR KGTB 152049Z AUTO 23016G27KT 9SM -RA SCT007 BKN011 OVC025 12/12 A2972 RMK
                 AO2 DZB02E09RAB09E30DZB30E34RAB39 CIG 011V022 BKN V SCT CIG 004 RWY03 SLP067
                 TSNO $ =
2018-10-15 16:39 METAR KGTB 152039Z AUTO 25019G29KT 3SM -RA BR SCT007 OVC022 12/12 A2971 RMK AO2
                 VIS 2 1/2 RWY15 VIS 2 1/2 RWY33 DZB02E09RAB09E30DZB30E34RAB39 CIG 005 RWY03
                 SLP064 TSNO $ =
2018-10-15 16:34 METAR KGTB 152034Z AUTO 25018G27KT 4SM BR SCT007 SCT015 OVC020 13/13 A2971 RMK
                 AO2 DZB02E09RAB09E30DZB30E34 CIG 005 RWY03 SLP064 TSNO $ =
2018-10-15 16:30 METAR KGTB 152030Z AUTO 26019G27KT 5SM -DZ BR SCT007 SCT015 OVC020 13/13 A2971
                 RMK AO2 DZB02E09RAB09E30DZB30 OVC V BKN CIG 005 RWY03 SLP064 TSNO $ =
2018-10-15 16:20 METAR KGTB 152020Z AUTO 25014G30KT 2 3/4SM +RA BR FEW006 BKN020 14/14 A2971 RMK
                 AO2 VIS 2 3/4V8 DZB02E09RAB09 CIG 020V026 CIG 005 RWY03 SLP063 TSNO $ =
2018-10-15 16:19 METAR KGTB 152019Z AUTO 26017G30KT 3SM +RA BR BKN020 OVC031 15/15 A2971 RMK AO2
                 WSHFT 05 DZB02E09RAB09 CIG 020V026 CIG 005 RWY03 PRESRR SLP063 TSNO $ =
2018-10-15 16:02 METAR KGTB 152002Z AUTO 21015G29KT 10SM -DZ FEW016 BKN023 BKN030 16/16 A2968 RMK
                 AO2 DZB02 CIG 023V030 BKN023 V SCT SLP052 TSNO $ =
2018-10-15 15:56 METAR KGTB 151956Z AUTO 20020G29KT 10SM SCT023 BKN030 15/15 A2967 RMK AO2 SLP050
                 T01540154 TSNO $ =
2018-10-15 14:56 METAR KGTB 151856Z AUTO 21014G21KT 10SM OVC020 15/15 A2971 RMK AO2 CIG 019 RWY03
                 SLP063 T01460146 TSNO $ =
2018-10-15 13:56 METAR KGTB 151756Z AUTO 20013KT 10SM OVC020 13/13 A2973 RMK AO2
                 RAB1657E06RAB10E19DZB19E21RAB21E31RAB36E49DZB49E50 SLP071 P0000 60000 T01320132
                 10132 20071 57038 TSNO $ =
2018-10-15 13:50 METAR KGTB 151750Z AUTO 20014KT 10SM FEW014 OVC020 13/13 A2974 RMK AO2
                 RAB1657E06RAB10E19DZB19E21RAB21E31RAB36E49DZB49E50 SLP074 TSNO $ =
2018-10-15 13:36 METAR KGTB 151736Z AUTO 20013KT 10SM -RA SCT014 OVC020 13/13 A2975 RMK AO2
                 RAB1657E06RAB10E19DZB19E21RAB21E31RAB36 CIG 014V020 CIG 011 RWY03 SLP077 TSNO $
                 =
2018-10-15 13:31 METAR KGTB 151731Z AUTO 20014KT 10SM BKN014 OVC020 13/13 A2975 RMK AO2
                 RAB1657E06RAB10E19DZB19E21RAB21E31 CIG 013 RWY03 SLP077 TSNO $ =
2018-10-15 13:20 METAR KGTB 151720Z AUTO 20014KT 10SM -DZ BKN014 OVC020 13/13 A2975 RMK AO2
                 RAB1657E06RAB10E19DZB19 BKN V OVC CIG 013 RWY03 SLP077 TSNO $ =
2018-10-15 13:10 METAR KGTB 151710Z AUTO 20011KT 6SM -RA BR OVC016 13/13 A2976 RMK AO2
                 RAB1657E06RAB10 CIG 014 RWY03 SLP081 TSNO $ =
2018-10-15 13:06 METAR KGTB 151706Z AUTO 20015KT 8SM OVC016 13/13 A2976 RMK AO2 RAB1657E06 CIG
                 006 RWY03 SLP080 TSNO $ =
2018-10-15 12:57 METAR KGTB 151657Z AUTO 19013KT 10SM -RA OVC016 13/13 A2976 RMK AO2 RAB57 CIG
                 014 RWY03 SLP080 TSNO $ =
2018-10-15 12:56 METAR KGTB 151656Z AUTO 19014KT 10SM OVC016 13/13 A2976 RMK AO2 CIG 014 RWY03
                 SLP080 T01290129 TSNO $ =
2018-10-15 12:46 METAR KGTB 151646Z AUTO 19013KT 10SM OVC016 12/12 A2977 RMK AO2 CIG 013 RWY03
                 SLP084 TSNO $ =
2018-10-15 12:16 METAR KGTB 151616Z AUTO 15008KT 10SM OVC014 11/11 A2980 RMK AO2 CIG 013 RWY03
                 SLP094 TSNO $ =
2018-10-15 11:56 METAR KGTB 151556Z AUTO 15009KT 10SM OVC015 10/10 A2981 RMK AO2 CIG 013 RWY03
                 SLP098 T00970097 TSNO $ =
2018-10-15 11:26 METAR KGTB 151526Z AUTO 15009KT 10SM OVC014 09/09 A2983 RMK AO2 CIG 013 RWY03
                 SLP105 TSNO $ =
2018-10-15 10:56 METAR KGTB 151456Z AUTO 15012KT 10SM OVC016 09/09 A2985 RMK AO2 CIG 014 RWY03
                 SLP112 60000 T00850085 57030 TSNO $ =
2018-10-15 09:56 METAR KGTB 151356Z AUTO 14009KT 10SM OVC016 08/08 A2989 RMK AO2 RAB31E41 SLP126
                 P0000 T00800080 TSNO $ =
2018-10-15 09:41 METAR KGTB 151341Z AUTO 15011KT 10SM OVC018 08/08 A2990 RMK AO2 RAB31E41 CIG 017
                 RWY03 SLP129 TSNO $ =
2018-10-15 09:31 METAR KGTB 151331Z AUTO 15011KT 10SM -RA BKN019 OVC039 08/08 A2991 RMK AO2 RAB31
                 CIG 019V041 CIG 018 RWY03 SLP132 TSNO $ =
2018-10-15 09:26 METAR KGTB 151326Z AUTO 15012KT 10SM BKN021 OVC041 08/08 A2991 RMK AO2 CIG
                 021V041 SLP132 TSNO $ =
2018-10-15 08:56 METAR KGTB 151256Z AUTO 15010KT 10SM OVC042 08/08 A2992 RMK AO2 SLP136 T00770077
                 TSNO $ =
2018-10-15 07:56 METAR KGTB 151156Z AUTO 14012KT 10SM SCT042 BKN090 07/07 A2994 RMK AO2 DZB04E07
                 SLP143 P0000 60000 T00710071 10071 20053 TSNO $ =
2018-10-15 07:07 METAR KGTB 151107Z AUTO 14012KT 10SM FEW100 07/07 A2994 RMK AO2 DZB04E07 SLP143
                 TSNO $ =
2018-10-15 07:04 METAR KGTB 151104Z AUTO 14013KT 10SM -DZ FEW100 07/07 A2994 RMK AO2 DZB04 SLP143
                 TSNO $ =
2018-10-15 06:56 METAR KGTB 151056Z AUTO 14012KT 10SM SCT100 07/07 A2995 RMK AO2 SLP146 T00650065
                 TSNO $ =

Support USWX by starting your Amazon purchase here.